Time;durP1;ratioP1;P1;durP2;ratioP2;P2;SDS_P1;SDS_P2;PMS_P1;PMS_P2;Temp;Humidity;BMP_temperature;BMP_pressure;BME280_temperature;BME280_humidity;BME280_pressure;Samples;Min_cycle;Max_cycle;Signal;HPM_P1;HPM_P2
2023/04/12 00:01:56;;;;;;;0.63;0.63;;;;;;;11.17;70.65;100488.19;5013879;28;20033;-80
2023/04/12 00:04:25;;;;;;;0.10;0.10;;;;;;;11.20;70.48;100472.16;5016058;28;20030;-79
2023/04/12 00:06:53;;;;;;;0.10;0.10;;;;;;;11.19;70.50;100457.19;5011794;28;20038;-79
2023/04/12 00:09:20;;;;;;;0.10;0.10;;;;;;;11.14;70.51;100446.72;5013202;28;20117;-82
2023/04/12 00:11:46;;;;;;;0.28;0.28;;;;;;;11.06;70.73;100442.53;5013385;28;20108;-79
2023/04/12 00:14:12;;;;;;;0.10;0.10;;;;;;;11.04;70.35;100425.81;5018730;28;20026;-79
2023/04/12 00:16:38;;;;;;;0.10;0.10;;;;;;;11.06;70.78;100424.84;5016928;28;20057;-81
2023/04/12 00:19:05;;;;;;;0.10;0.10;;;;;;;11.03;71.13;100421.41;5014616;28;20395;-81
2023/04/12 00:21:31;;;;;;;0.10;0.10;;;;;;;11.06;70.73;100413.38;5010760;28;20033;-81
2023/04/12 00:23:58;;;;;;;0.03;0.03;;;;;;;11.07;70.86;100401.88;5016133;28;20463;-81
2023/04/12 00:26:25;;;;;;;0.10;0.10;;;;;;;11.00;71.19;100402.06;5018429;28;20026;-77
2023/04/12 00:28:51;;;;;;;0.10;0.10;;;;;;;10.98;71.25;100397.72;5017736;28;20029;-80
2023/04/12 00:31:17;;;;;;;0.10;0.10;;;;;;;10.99;70.84;100379.09;5017560;28;20037;-81
2023/04/12 00:33:43;;;;;;;0.10;0.10;;;;;;;10.94;71.06;100375.72;5016889;28;20022;-81
2023/04/12 00:36:09;;;;;;;0.10;0.10;;;;;;;10.83;70.96;100362.75;5016493;28;20052;-81
2023/04/12 00:38:35;;;;;;;0.10;0.10;;;;;;;10.95;70.51;100350.94;5014116;28;20097;-81
2023/04/12 00:41:01;;;;;;;0.10;0.10;;;;;;;10.95;70.63;100328.84;5012837;28;20026;-81
2023/04/12 00:43:28;;;;;;;0.10;0.10;;;;;;;10.91;70.77;100325.44;5016788;28;20041;-80
2023/04/12 00:45:57;;;;;;;0.00;0.00;;;;;;;10.96;70.81;100331.47;5017884;28;20030;-79
2023/04/12 00:48:25;;;;;;;0.10;0.10;;;;;;;10.90;70.48;100328.13;5015838;28;20558;-81
2023/04/12 00:50:54;;;;;;;0.10;0.10;;;;;;;10.90;70.29;100329.00;5013887;28;20113;-80
2023/04/12 00:53:21;;;;;;;0.00;0.00;;;;;;;10.87;70.67;100315.84;5014472;28;20399;-80
2023/04/12 00:55:49;;;;;;;0.10;0.10;;;;;;;10.93;70.81;100309.47;5016478;28;20030;-80
2023/04/12 00:58:16;;;;;;;0.60;0.55;;;;;;;10.85;71.26;100296.47;5016123;28;20026;-80
2023/04/12 01:00:48;;;;;;;0.10;0.10;;;;;;;10.80;71.56;100279.84;5017991;28;20034;-81
2023/04/12 01:03:21;;;;;;;0.10;0.10;;;;;;;10.87;70.68;100276.09;5014979;28;20033;-81
2023/04/12 01:05:58;;;;;;;;;;;;;;;10.99;70.55;100273.06;5015703;28;20057;-81
2023/04/12 01:08:38;;;;;;;0.13;0.13;;;;;;;10.93;70.88;100273.25;5009001;28;19952;-82
2023/04/12 01:13:57;;;;;;;0.20;0.20;;;;;;;10.78;71.33;100241.91;5105309;27;1403518;-82
2023/04/12 01:16:49;;;;;;;0.10;0.10;;;;;;;10.75;71.18;100242.88;5131998;27;20476;-80
2023/04/12 01:25:46;;;;;;;0.10;0.10;;;;;;;10.62;71.22;100229.13;5110698;27;20463;-81
2023/04/12 01:28:19;;;;;;;0.20;0.20;;;;;;;10.65;71.01;100215.81;5111784;27;20085;-83
2023/04/12 01:30:47;;;;;;;0.10;0.10;;;;;;;10.60;71.10;100206.25;5104578;27;20036;-83
2023/04/12 01:33:14;;;;;;;0.10;0.10;;;;;;;10.56;71.50;100204.63;5099346;28;20050;-80
2023/04/12 01:35:42;;;;;;;0.10;0.10;;;;;;;10.53;71.44;100202.94;5102910;27;20058;-81
2023/04/12 01:38:09;;;;;;;0.10;0.10;;;;;;;10.60;71.43;100182.41;5101457;28;20043;-81
2023/04/12 01:40:39;;;;;;;0.10;0.10;;;;;;;10.55;71.77;100185.19;5112171;28;20416;-81
2023/04/12 01:43:08;;;;;;;0.75;0.75;;;;;;;10.63;71.32;100185.84;5111311;28;20033;-81
2023/04/12 01:45:34;;;;;;;0.10;0.10;;;;;;;10.60;71.53;100177.13;5106317;27;20492;-80
2023/04/12 01:48:03;;;;;;;0.10;0.10;;;;;;;10.55;71.14;100165.78;5103525;28;20401;-78
2023/04/12 01:53:31;;;;;;;0.10;0.10;;;;;;;10.51;71.71;100151.78;5105803;27;20873;-78
2023/04/12 01:56:03;;;;;;;0.10;0.10;;;;;;;10.60;71.39;100132.94;5106962;28;20684;-82
2023/04/12 01:58:30;;;;;;;0.10;0.10;;;;;;;10.57;71.54;100132.19;5104084;28;20492;-82
2023/04/12 02:00:58;;;;;;;0.10;0.10;;;;;;;10.55;71.64;100129.56;5106079;28;20033;-80
2023/04/12 02:03:25;;;;;;;0.10;0.10;;;;;;;10.48;72.00;100113.00;5110802;28;20034;-81
2023/04/12 02:05:52;;;;;;;0.08;0.08;;;;;;;10.58;71.93;100113.59;5103785;28;20028;-83
2023/04/12 02:08:18;;;;;;;0.10;0.10;;;;;;;10.60;71.74;100108.25;5101520;28;20499;-83
2023/04/12 02:10:44;;;;;;;0.10;0.10;;;;;;;10.59;71.89;100098.56;5111893;28;20087;-80
2023/04/12 02:13:11;;;;;;;0.10;0.10;;;;;;;10.62;71.93;100094.03;5105562;28;20027;-81
2023/04/12 02:15:37;;;;;;;0.10;0.10;;;;;;;10.60;71.95;100093.19;5114228;28;20040;-80
2023/04/12 02:18:03;;;;;;;0.10;0.10;;;;;;;10.55;72.14;100073.94;5114057;28;20036;-82
2023/04/12 02:20:29;;;;;;;0.10;0.10;;;;;;;10.51;72.04;100067.88;5103179;28;20039;-82
2023/04/12 02:22:55;;;;;;;0.10;0.10;;;;;;;10.49;72.33;100066.19;5101566;28;20035;-82
2023/04/12 02:25:22;;;;;;;0.10;0.10;;;;;;;10.65;72.28;100059.50;5101889;28;20031;-81
2023/04/12 02:27:48;;;;;;;0.10;0.10;;;;;;;10.65;72.23;100063.91;5098971;28;20051;-80
2023/04/12 02:30:14;;;;;;;0.10;0.10;;;;;;;10.65;72.12;100059.50;5091971;28;20085;-80
2023/04/12 02:32:44;;;;;;;0.20;0.20;;;;;;;10.64;72.08;100054.22;5099423;28;20030;-79
2023/04/12 02:35:13;;;;;;;0.10;0.10;;;;;;;10.70;71.93;100047.88;5104318;28;20032;-79
2023/04/12 02:37:40;;;;;;;0.25;0.25;;;;;;;10.67;72.07;100044.41;5110074;28;20423;-81
2023/04/12 02:40:09;;;;;;;0.10;0.10;;;;;;;10.68;72.08;100035.53;5115387;27;20034;-80
2023/04/12 02:42:35;;;;;;;0.10;0.10;;;;;;;10.61;72.43;100028.72;5118734;28;20027;-81
2023/04/12 02:45:02;;;;;;;0.10;0.10;;;;;;;10.65;72.38;100021.53;5110572;28;20028;-81
2023/04/12 02:47:29;;;;;;;0.10;0.10;;;;;;;10.64;72.36;100012.72;5106064;28;20107;-82
2023/04/12 02:49:55;;;;;;;0.10;0.10;;;;;;;10.72;72.30;100003.66;5112228;28;20028;-81
2023/04/12 02:52:21;;;;;;;0.10;0.10;;;;;;;10.68;72.42;100005.53;5111017;28;20016;-81
2023/04/12 02:54:49;;;;;;;0.10;0.10;;;;;;;10.72;72.45;99993.91;5108253;28;20117;-82
2023/04/12 02:57:16;;;;;;;0.10;0.10;;;;;;;10.78;71.99;99999.00;5117102;28;20081;-80
2023/04/12 02:59:42;;;;;;;0.30;0.30;;;;;;;10.75;72.22;99992.94;5111676;28;20061;-80
2023/04/12 03:02:09;;;;;;;0.10;0.10;;;;;;;10.70;72.31;99985.16;5113551;27;20057;-78
2023/04/12 03:04:38;;;;;;;0.55;0.55;;;;;;;10.69;72.69;99980.75;5092065;28;20059;-81
2023/04/12 03:07:05;;;;;;;0.10;0.10;;;;;;;10.71;72.47;99976.28;5093603;28;20087;-78
2023/04/12 03:09:31;;;;;;;0.10;0.10;;;;;;;10.74;72.38;99975.31;5099083;28;20023;-82
2023/04/12 03:11:58;;;;;;;0.10;0.10;;;;;;;10.73;72.62;99965.63;5095089;28;20107;-82
2023/04/12 03:14:24;;;;;;;0.10;0.10;;;;;;;10.72;73.15;99962.13;5097353;28;20034;-83
2023/04/12 03:16:52;;;;;;;0.10;0.10;;;;;;;10.70;73.03;99958.66;5093979;28;20046;-81
2023/04/12 03:19:18;;;;;;;0.10;0.10;;;;;;;10.71;73.31;99949.78;5093183;28;20035;-82
2023/04/12 03:21:45;;;;;;;0.63;0.63;;;;;;;10.78;72.92;99939.81;5096604;28;20095;-81
2023/04/12 03:24:12;;;;;;;0.10;0.10;;;;;;;10.83;72.72;99943.22;5091935;28;20024;-81
2023/04/12 03:26:40;;;;;;;0.08;0.08;;;;;;;10.78;73.08;99931.88;5095100;28;20056;-83
2023/04/12 03:29:07;;;;;;;0.10;0.10;;;;;;;10.81;72.92;99923.84;5100778;28;20123;-82
2023/04/12 03:31:34;;;;;;;0.10;0.10;;;;;;;10.71;72.93;99930.38;5091377;28;20028;-82
2023/04/12 03:34:01;;;;;;;0.10;0.10;;;;;;;10.76;73.04;99923.13;5088474;28;20115;-81
2023/04/12 03:36:28;;;;;;;0.10;0.10;;;;;;;10.78;73.21;99913.34;5093466;28;20028;-80
2023/04/12 03:38:55;;;;;;;0.00;0.00;;;;;;;10.76;72.91;99918.69;5100670;28;20024;-81
2023/04/12 03:41:23;;;;;;;0.10;0.10;;;;;;;10.70;73.11;99900.38;5097031;28;20024;-82
2023/04/12 03:43:49;;;;;;;0.10;0.10;;;;;;;10.80;72.91;99901.78;5092239;28;20036;-81
2023/04/12 03:46:16;;;;;;;0.10;0.10;;;;;;;10.82;72.87;99893.78;5089398;28;20036;-82
2023/04/12 03:48:43;;;;;;;0.10;0.10;;;;;;;10.83;72.95;99895.50;5092487;28;20028;-81
2023/04/12 03:51:10;;;;;;;0.10;0.10;;;;;;;10.80;72.82;99890.31;5095471;28;20533;-81
2023/04/12 03:53:38;;;;;;;0.10;0.10;;;;;;;10.80;73.04;99875.28;5099984;27;20046;-81
2023/04/12 03:56:04;;;;;;;0.00;0.00;;;;;;;10.84;72.92;99865.41;5090180;28;20055;-80
2023/04/12 03:58:32;;;;;;;0.38;0.38;;;;;;;10.83;72.76;99861.06;5079733;28;20060;-82
2023/04/12 04:01:02;;;;;;;0.10;0.10;;;;;;;10.87;72.70;99848.56;5092954;28;20036;-81
2023/04/12 04:03:29;;;;;;;0.10;0.10;;;;;;;10.78;72.77;99855.03;5091805;28;20027;-81
2023/04/12 04:05:55;;;;;;;0.10;0.10;;;;;;;10.83;72.88;99863.72;5097662;28;20021;-81
2023/04/12 04:08:22;;;;;;;0.10;0.10;;;;;;;10.79;73.31;99857.66;5079984;28;20032;-80
2023/04/12 04:10:48;;;;;;;0.10;0.10;;;;;;;10.88;73.01;99845.84;5089910;28;20032;-79
2023/04/12 04:13:14;;;;;;;0.10;0.10;;;;;;;10.85;73.08;99851.25;5092104;28;20028;-81
2023/04/12 04:15:40;;;;;;;0.10;0.10;;;;;;;10.81;73.18;99849.66;5093929;28;20087;-82
2023/04/12 04:18:06;;;;;;;0.00;0.00;;;;;;;10.83;73.14;99842.50;5086544;28;20569;-81
2023/04/12 04:20:32;;;;;;;0.10;0.10;;;;;;;10.79;73.30;99862.94;5087689;28;20094;-81
2023/04/12 04:22:58;;;;;;;0.10;0.10;;;;;;;10.83;73.25;99863.72;5095022;28;20031;-81
2023/04/12 04:25:28;;;;;;;0.10;0.10;;;;;;;10.94;72.81;99858.88;5098345;28;20096;-81
2023/04/12 04:27:55;;;;;;;0.00;0.00;;;;;;;10.87;72.97;99857.38;5093010;28;20123;-81
2023/04/12 04:30:22;;;;;;;0.10;0.10;;;;;;;10.96;73.29;99849.06;5097363;28;20405;-80
2023/04/12 04:32:48;;;;;;;0.08;0.08;;;;;;;10.83;73.19;99853.13;5098026;28;20043;-81
2023/04/12 04:35:16;;;;;;;1.05;1.05;;;;;;;10.90;73.26;99851.09;5095567;28;20036;-80
2023/04/12 04:37:42;;;;;;;0.20;0.20;;;;;;;10.89;73.18;99839.63;5084272;28;20432;-80
2023/04/12 04:40:10;;;;;;;0.10;0.10;;;;;;;10.94;73.24;99844.75;5093180;28;20441;-81
2023/04/12 04:42:38;;;;;;;0.10;0.10;;;;;;;10.95;73.24;99847.34;5081617;28;20052;-82
2023/04/12 04:45:11;;;;;;;0.10;0.10;;;;;;;10.96;73.50;99854.34;5092587;28;20024;-81
2023/04/12 04:47:38;;;;;;;0.10;0.10;;;;;;;10.91;73.74;99861.63;5079985;28;20032;-83
2023/04/12 04:50:05;;;;;;;0.10;0.10;;;;;;;10.94;73.75;99855.34;5091697;28;20134;-82
2023/04/12 04:52:31;;;;;;;0.32;0.32;;;;;;;10.96;73.44;99851.72;5079411;28;20154;-81
2023/04/12 04:54:57;;;;;;;0.10;0.10;;;;;;;11.00;73.59;99853.34;5092011;28;20111;-82
2023/04/12 04:57:25;;;;;;;0.10;0.10;;;;;;;10.88;73.41;99859.09;5089166;28;20073;-83
2023/04/12 04:59:51;;;;;;;0.10;0.10;;;;;;;10.93;73.80;99862.44;5106019;28;20035;-81
2023/04/12 05:02:18;;;;;;;0.10;0.10;;;;;;;10.95;73.79;99873.84;5083946;28;20028;-81
2023/04/12 05:04:44;;;;;;;0.10;0.10;;;;;;;11.02;73.67;99874.47;5080255;28;20028;-82
2023/04/12 05:07:12;;;;;;;0.13;0.13;;;;;;;11.06;73.61;99864.63;5084430;28;20042;-83
2023/04/12 05:09:38;;;;;;;0.10;0.10;;;;;;;10.97;73.55;99872.00;5078643;28;20051;-83
2023/04/12 05:12:04;;;;;;;0.10;0.10;;;;;;;11.08;73.51;99871.59;5092342;28;20024;-83
2023/04/12 05:14:30;;;;;;;0.10;0.10;;;;;;;11.05;73.62;99868.19;5087836;28;20039;-83
2023/04/12 05:16:56;;;;;;;0.10;0.10;;;;;;;11.09;73.62;99865.38;5085515;28;20032;-83
2023/04/12 05:19:22;;;;;;;0.10;0.10;;;;;;;11.09;73.58;99854.78;5087057;28;20035;-83
2023/04/12 05:21:48;;;;;;;0.13;0.13;;;;;;;11.11;73.25;99858.22;5076904;28;20028;-82
2023/04/12 05:24:14;;;;;;;0.10;0.10;;;;;;;11.11;73.32;99862.66;5076119;28;20031;-81
2023/04/12 05:26:40;;;;;;;5.28;2.95;;;;;;;11.12;73.38;99854.66;5075018;28;20033;-81
2023/04/12 05:29:06;;;;;;;0.00;0.00;;;;;;;11.16;73.39;99850.09;5086162;28;20043;-82
2023/04/12 05:31:33;;;;;;;0.10;0.10;;;;;;;11.17;73.42;99852.69;5088005;28;20059;-82
2023/04/12 05:33:59;;;;;;;0.10;0.10;;;;;;;11.12;73.29;99852.00;5083356;28;20041;-83
2023/04/12 05:36:25;;;;;;;0.10;0.10;;;;;;;11.19;73.54;99844.69;5087053;28;20021;-80
2023/04/12 05:38:51;;;;;;;0.10;0.10;;;;;;;11.24;73.14;99853.31;5083267;28;20032;-79
2023/04/12 05:41:17;;;;;;;0.25;0.25;;;;;;;11.23;72.86;99848.94;5095695;28;20046;-81
2023/04/12 05:43:44;;;;;;;0.10;0.10;;;;;;;11.25;73.38;99852.41;5094818;28;20035;-81
2023/04/12 05:46:10;;;;;;;0.47;0.47;;;;;;;11.24;73.13;99858.63;5086341;28;20089;-82
2023/04/12 05:48:36;;;;;;;0.20;0.20;;;;;;;11.29;73.42;99856.66;5092064;28;20067;-82
2023/04/12 05:51:04;;;;;;;0.17;0.17;;;;;;;11.35;72.92;99868.81;5087762;28;20050;-82
2023/04/12 05:53:31;;;;;;;0.43;0.43;;;;;;;11.35;73.34;99871.44;5082349;28;20064;-80
2023/04/12 05:55:57;;;;;;;0.10;0.10;;;;;;;11.36;73.04;99862.56;5080477;28;20095;-81
2023/04/12 05:58:24;;;;;;;0.10;0.10;;;;;;;11.41;73.38;99860.59;5081013;28;20028;-82
2023/04/12 06:00:50;;;;;;;0.10;0.10;;;;;;;11.44;73.37;99855.19;5082735;28;20027;-82
2023/04/12 06:03:16;;;;;;;0.10;0.10;;;;;;;11.52;73.00;99852.22;5077064;28;20032;-80
2023/04/12 06:05:42;;;;;;;0.20;0.20;;;;;;;11.54;73.03;99860.13;5082354;28;20690;-84
2023/04/12 06:08:13;;;;;;;1.58;1.48;;;;;;;11.56;73.03;99859.13;5081509;28;20037;-81
2023/04/12 06:10:40;;;;;;;0.10;0.10;;;;;;;11.53;72.76;99869.88;5076079;28;20133;-81
2023/04/12 06:13:06;;;;;;;0.20;0.20;;;;;;;11.53;73.09;99867.22;5081875;28;20486;-82
2023/04/12 06:15:32;;;;;;;0.10;0.10;;;;;;;11.56;72.97;99869.75;5084837;28;20040;-81
2023/04/12 06:17:59;;;;;;;0.20;0.20;;;;;;;11.57;73.04;99855.56;5086869;28;20032;-82
2023/04/12 06:20:25;;;;;;;0.10;0.10;;;;;;;11.58;73.04;99857.28;5073702;28;20070;-83
2023/04/12 06:22:51;;;;;;;0.30;0.30;;;;;;;11.64;73.03;99866.81;5086249;28;20090;-83
2023/04/12 06:25:17;;;;;;;0.20;0.20;;;;;;;11.68;72.93;99856.94;5083811;28;20470;-84
2023/04/12 06:27:43;;;;;;;0.20;0.20;;;;;;;11.69;73.20;99842.72;5088288;28;20028;-86
2023/04/12 06:30:10;;;;;;;0.10;0.10;;;;;;;11.76;72.76;99844.22;5077267;28;20020;-84
2023/04/12 06:32:37;;;;;;;1.05;1.05;;;;;;;11.73;72.76;99849.66;5079656;28;20059;-83
2023/04/12 06:35:04;;;;;;;0.10;0.10;;;;;;;11.75;73.01;99845.13;5077492;28;20074;-85
2023/04/12 06:37:30;;;;;;;0.10;0.10;;;;;;;11.74;72.60;99852.25;5082534;28;20486;-82
2023/04/12 06:39:56;;;;;;;0.10;0.10;;;;;;;11.80;72.23;99859.06;5091946;28;20024;-84
2023/04/12 06:42:23;;;;;;;0.10;0.10;;;;;;;11.77;72.34;99854.75;5092399;28;20024;-84
2023/04/12 06:44:49;;;;;;;0.17;0.17;;;;;;;11.76;72.24;99854.81;5094996;28;20032;-85
2023/04/12 06:47:15;;;;;;;0.10;0.10;;;;;;;11.72;72.46;99853.22;5082249;28;20485;-86
2023/04/12 06:49:41;;;;;;;0.10;0.10;;;;;;;11.74;71.78;99851.34;5079915;28;20052;-83
2023/04/12 06:52:07;;;;;;;0.20;0.20;;;;;;;11.73;72.11;99855.81;5080889;28;20088;-85
2023/04/12 06:54:37;;;;;;;0.10;0.10;;;;;;;11.75;71.66;99861.03;5081974;28;20044;-83
2023/04/12 06:57:07;;;;;;;0.10;0.10;;;;;;;11.64;70.75;99856.19;5087865;28;20027;-84
2023/04/12 06:59:33;;;;;;;0.40;0.40;;;;;;;11.63;70.66;99863.28;5080108;28;20033;-84
2023/04/12 07:01:59;;;;;;;0.10;0.10;;;;;;;11.58;69.82;99859.94;5078011;28;20033;-84
2023/04/12 07:04:25;;;;;;;0.10;0.10;;;;;;;11.73;69.94;99865.56;5081173;28;20028;-84
2023/04/12 07:06:54;;;;;;;0.10;0.10;;;;;;;11.70;70.29;99871.00;5088588;28;20435;-83
2023/04/12 07:09:20;;;;;;;0.10;0.10;;;;;;;11.80;69.70;99862.59;5080293;28;20112;-81
2023/04/12 07:11:47;;;;;;;0.20;0.20;;;;;;;11.80;69.59;99861.72;5084988;28;20016;-84
2023/04/12 07:14:13;;;;;;;0.15;0.15;;;;;;;11.81;68.97;99860.81;5085451;28;20028;-84
2023/04/12 07:16:39;;;;;;;0.10;0.10;;;;;;;11.80;69.54;99867.91;5075671;28;20032;-83
2023/04/12 07:19:08;;;;;;;0.10;0.10;;;;;;;11.87;68.41;99857.91;5076020;28;20075;-81
2023/04/12 07:21:34;;;;;;;0.10;0.10;;;;;;;11.82;68.50;99857.22;5080446;28;20818;-82
2023/04/12 07:24:00;;;;;;;0.10;0.10;;;;;;;11.82;67.45;99857.22;5082298;28;20028;-83
2023/04/12 07:26:26;;;;;;;0.10;0.10;;;;;;;11.89;67.80;99857.84;5084818;28;20028;-85
2023/04/12 07:28:53;;;;;;;0.35;0.35;;;;;;;11.92;67.68;99850.59;5085313;28;20017;-85
2023/04/12 07:31:20;;;;;;;0.47;0.47;;;;;;;11.95;67.94;99845.19;5075262;28;20021;-85
2023/04/12 07:33:49;;;;;;;0.20;0.20;;;;;;;12.01;67.11;99840.56;5085423;28;20033;-82
2023/04/12 07:36:19;;;;;;;2.03;1.95;;;;;;;12.08;67.82;99839.38;5076381;28;20033;-85
2023/04/12 07:38:45;;;;;;;0.10;0.10;;;;;;;12.00;66.75;99839.72;5086001;28;20070;-85
2023/04/12 07:41:12;;;;;;;0.20;0.20;;;;;;;12.12;67.13;99831.25;5087942;28;20024;-84
2023/04/12 07:43:38;;;;;;;0.10;0.10;;;;;;;12.07;67.03;99821.72;5092910;28;20024;-85
2023/04/12 07:46:07;;;;;;;0.40;0.40;;;;;;;12.07;66.62;99813.75;5080216;28;20039;-85
2023/04/12 07:48:33;;;;;;;0.10;0.10;;;;;;;12.15;67.31;99811.66;5088950;28;20028;-85
2023/04/12 07:50:59;;;;;;;0.10;0.10;;;;;;;12.22;67.12;99815.75;5086452;28;20569;-83
2023/04/12 07:53:27;;;;;;;0.50;0.40;;;;;;;12.26;66.27;99816.47;5076924;28;20452;-83
2023/04/12 07:55:55;;;;;;;0.10;0.10;;;;;;;12.27;65.34;99813.78;5077765;28;20095;-84
2023/04/12 07:58:22;;;;;;;0.50;0.50;;;;;;;12.37;64.55;99813.38;5085795;28;20025;-83
2023/04/12 08:00:49;;;;;;;1.75;1.65;;;;;;;12.39;62.47;99816.81;5075361;28;20060;-83
2023/04/12 08:05:52;;;;;;;0.10;0.10;;;;;;;12.36;61.70;99822.25;5496219;22;20380;-87
2023/04/12 08:08:21;;;;;;;0.20;0.20;;;;;;;12.42;61.54;99820.22;5049472;22;20049;-82
2023/04/12 08:10:47;;;;;;;0.10;0.10;;;;;;;12.53;60.58;99809.09;5023891;28;20057;-82
2023/04/12 08:13:13;;;;;;;0.10;0.10;;;;;;;12.62;59.25;99821.09;5047040;28;20079;-80
2023/04/12 08:15:40;;;;;;;0.20;0.20;;;;;;;12.81;61.12;99821.16;5044470;28;20046;-82
2023/04/12 08:18:06;;;;;;;0.00;0.00;;;;;;;12.99;60.60;99821.22;5047122;28;20044;-83
2023/04/12 08:20:32;;;;;;;0.10;0.10;;;;;;;13.05;60.13;99831.59;5044200;28;20035;-83
2023/04/12 08:22:58;;;;;;;0.63;0.63;;;;;;;13.03;58.00;99828.13;5056060;28;20036;-83
2023/04/12 08:25:25;;;;;;;0.10;0.10;;;;;;;12.96;57.20;99827.56;5055603;28;20048;-83
2023/04/12 08:27:51;;;;;;;0.10;0.10;;;;;;;12.83;55.69;99827.22;5056975;28;20389;-84
2023/04/12 08:30:25;;;;;;;0.10;0.10;;;;;;;12.86;56.55;99824.44;5053208;28;20029;-81
2023/04/12 08:32:52;;;;;;;0.10;0.10;;;;;;;12.98;58.66;99825.66;5058101;28;20103;-84
2023/04/12 08:35:18;;;;;;;0.10;0.10;;;;;;;12.99;57.92;99829.22;5055995;28;20093;-81
2023/04/12 08:37:44;;;;;;;0.90;0.90;;;;;;;12.98;56.51;99824.81;5052635;28;20159;-81
2023/04/12 08:40:12;;;;;;;0.30;0.30;;;;;;;13.01;57.16;99824.66;5066872;28;20059;-84
2023/04/12 08:42:38;;;;;;;0.10;0.10;;;;;;;13.02;57.38;99834.38;5065586;28;20101;-82
2023/04/12 08:45:06;;;;;;;0.10;0.10;;;;;;;12.95;57.44;99834.66;5058122;28;20060;-83
2023/04/12 08:47:38;;;;;;;0.20;0.20;;;;;;;13.00;57.40;99830.94;5055265;28;20226;-85
2023/04/12 08:50:08;;;;;;;1.05;1.00;;;;;;;13.00;57.17;99822.97;5054307;28;20256;-84
2023/04/12 08:52:36;;;;;;;0.10;0.10;;;;;;;13.07;57.74;99817.28;5053740;28;20106;-85
2023/04/12 08:55:03;;;;;;;0.10;0.10;;;;;;;13.21;57.06;99823.75;5055044;28;20025;-85
2023/04/12 08:57:31;;;;;;;0.10;0.10;;;;;;;13.32;56.53;99820.56;5058561;28;20087;-84
2023/04/12 09:00:00;;;;;;;0.10;0.10;;;;;;;13.40;55.64;99823.75;5053034;28;20028;-85
2023/04/12 09:02:27;;;;;;;0.30;0.30;;;;;;;13.46;54.22;99820.81;5062211;28;20074;-84
2023/04/12 09:04:54;;;;;;;0.75;0.75;;;;;;;13.66;54.75;99817.16;5061977;28;20025;-85
2023/04/12 09:07:22;;;;;;;0.10;0.10;;;;;;;13.77;54.47;99813.09;5049528;28;20032;-85
2023/04/12 09:09:49;;;;;;;0.10;0.10;;;;;;;13.82;54.49;99817.25;5046887;28;20417;-85
2023/04/12 09:12:18;;;;;;;0.10;0.10;;;;;;;13.75;51.67;99819.34;5059425;28;20029;-87
2023/04/12 09:15:12;;;;;;;0.08;0.08;;;;;;;13.86;52.38;99817.97;5060862;28;20039;-87
2023/04/12 09:17:42;;;;;;;0.63;0.63;;;;;;;13.93;53.73;99806.06;5060532;28;20037;-85
2023/04/12 09:20:24;;;;;;;0.20;0.20;;;;;;;14.08;53.38;99807.06;5047751;28;20029;-87
2023/04/12 09:22:53;;;;;;;0.20;0.20;;;;;;;14.05;52.97;99809.91;5053252;28;20330;-83
2023/04/12 09:25:38;;;;;;;0.85;0.85;;;;;;;14.01;53.04;99808.34;5053412;28;20032;-83
2023/04/12 09:28:17;;;;;;;0.10;0.10;;;;;;;14.07;52.67;99816.03;5045872;28;20386;-85
2023/04/12 09:30:43;;;;;;;0.10;0.10;;;;;;;14.26;53.00;99809.75;5057549;28;20138;-85
2023/04/12 09:33:14;;;;;;;0.20;0.20;;;;;;;14.34;53.64;99812.88;5054250;28;20451;-82
2023/04/12 09:35:41;;;;;;;0.20;0.20;;;;;;;14.31;52.97;99805.91;5055564;28;20560;-83
2023/04/12 09:38:08;;;;;;;0.10;0.10;;;;;;;14.32;52.54;99798.78;5057168;28;20036;-83
2023/04/12 09:40:35;;;;;;;0.40;0.40;;;;;;;14.41;53.03;99803.63;5057989;28;20025;-83
2023/04/12 09:43:02;;;;;;;0.10;0.10;;;;;;;14.50;53.57;99796.94;5050335;28;20084;-81
2023/04/12 09:45:30;;;;;;;0.60;0.60;;;;;;;14.54;52.83;99804.69;5054173;28;20078;-83
2023/04/12 09:47:56;;;;;;;0.10;0.10;;;;;;;14.60;53.20;99792.81;5054034;28;20029;-83
2023/04/12 09:50:27;;;;;;;0.10;0.10;;;;;;;14.62;52.13;99788.28;5054657;28;20238;-83
2023/04/12 09:52:54;;;;;;;0.10;0.10;;;;;;;14.63;50.37;99795.34;5055458;28;20017;-81
2023/04/12 09:55:22;;;;;;;2.40;2.03;;;;;;;14.69;51.24;99786.16;5054190;28;20032;-83
2023/04/12 09:57:51;;;;;;;0.68;0.68;;;;;;;14.62;48.21;99790.09;5054299;28;20032;-84
2023/04/12 10:00:18;;;;;;;0.15;0.15;;;;;;;14.51;48.23;99799.50;5055152;28;20033;-83
2023/04/12 10:02:48;;;;;;;0.10;0.10;;;;;;;14.51;48.79;99796.84;5053801;28;20041;-85
2023/04/12 10:05:17;;;;;;;0.22;0.22;;;;;;;14.67;49.73;99802.25;5050978;28;20503;-85
2023/04/12 10:07:45;;;;;;;0.50;0.50;;;;;;;14.77;48.96;99793.78;5051144;28;20043;-83
2023/04/12 10:10:14;;;;;;;0.10;0.10;;;;;;;14.81;47.91;99796.16;5045850;28;20045;-83
2023/04/12 10:12:42;;;;;;;0.47;0.47;;;;;;;14.74;47.72;99797.44;5046757;28;20102;-84
2023/04/12 10:15:14;;;;;;;0.10;0.10;;;;;;;14.70;48.29;99801.22;5058105;28;20732;-83
2023/04/12 10:17:45;;;;;;;0.17;0.17;;;;;;;14.59;48.13;99801.75;5056136;28;20050;-85
2023/04/12 10:20:14;;;;;;;0.10;0.10;;;;;;;14.45;47.60;99798.97;5049966;28;20059;-83
2023/04/12 10:22:45;;;;;;;0.30;0.30;;;;;;;14.43;48.46;99799.06;5052310;28;20108;-84
2023/04/12 10:25:14;;;;;;;1.33;1.33;;;;;;;14.34;48.08;99797.75;5055777;28;20051;-83
2023/04/12 10:27:42;;;;;;;0.10;0.10;;;;;;;14.27;48.63;99803.47;5053606;28;20410;-84
2023/04/12 10:38:45;;;;;;;0.10;0.10;;;;;;;14.63;49.16;99810.47;5073923;28;20392;-81
2023/04/12 10:41:20;;;;;;;0.10;0.10;;;;;;;14.84;48.43;99801.34;5059555;28;20065;-82
2023/04/12 10:43:48;;;;;;;0.10;0.10;;;;;;;14.99;46.65;99798.78;5064618;28;20056;-82
2023/04/12 10:49:14;;;;;;;0.10;0.10;;;;;;;15.22;43.02;99810.00;5121603;27;20331;-82
2023/04/12 10:54:36;;;;;;;0.10;0.10;;;;;;;15.10;43.12;99803.53;5087515;27;1889402;-81
2023/04/12 10:57:03;;;;;;;0.10;0.10;;;;;;;15.22;43.20;99799.31;5127003;28;20020;-82
2023/04/12 11:02:27;;;;;;;4.38;1.70;;;;;;;15.16;42.04;99805.84;5133175;27;20351;-81
2023/04/12 11:05:09;;;;;;;0.10;0.10;;;;;;;15.20;42.33;99810.94;5117548;28;20199;-82
2023/04/12 11:07:44;;;;;;;0.13;0.13;;;;;;;15.37;42.17;99811.78;5114753;28;20024;-82
2023/04/12 11:10:16;;;;;;;0.10;0.10;;;;;;;15.43;41.78;99816.78;5112704;28;20036;-80
2023/04/12 11:12:49;;;;;;;0.15;0.15;;;;;;;15.50;41.18;99830.63;5105411;28;20069;-81
2023/04/12 11:15:15;;;;;;;0.10;0.10;;;;;;;15.55;39.76;99817.88;5112666;28;20020;-80
2023/04/12 11:17:51;;;;;;;0.10;0.10;;;;;;;15.55;38.46;99811.69;5112740;28;20039;-81
2023/04/12 11:20:18;;;;;;;0.10;0.10;;;;;;;15.66;36.81;99809.25;5115025;28;20032;-81
2023/04/12 11:22:44;;;;;;;0.10;0.10;;;;;;;15.62;35.78;99813.91;5114253;28;20039;-81
2023/04/12 11:25:16;;;;;;;0.10;0.10;;;;;;;15.74;35.70;99825.72;5105109;28;20031;-81
2023/04/12 11:27:50;;;;;;;0.10;0.10;;;;;;;15.76;36.88;99815.78;5108648;28;20035;-81
2023/04/12 11:30:16;;;;;;;0.10;0.10;;;;;;;15.69;35.90;99825.13;5111840;28;20114;-81
2023/04/12 11:32:45;;;;;;;0.10;0.10;;;;;;;15.50;35.27;99818.16;5103786;28;20032;-80
2023/04/12 11:35:13;;;;;;;0.15;0.15;;;;;;;15.37;36.69;99825.13;5111090;28;20024;-81
2023/04/12 11:37:39;;;;;;;0.10;0.10;;;;;;;15.38;36.60;99818.84;5105002;28;20123;-81
2023/04/12 11:40:06;;;;;;;0.15;0.15;;;;;;;15.35;35.72;99825.22;5115057;28;20038;-81
2023/04/12 11:42:32;;;;;;;0.10;0.10;;;;;;;15.42;34.74;99843.56;5115167;28;20032;-83
2023/04/12 11:44:58;;;;;;;0.10;0.10;;;;;;;15.52;36.04;99829.59;5116798;28;20073;-83
2023/04/12 11:47:25;;;;;;;0.10;0.10;;;;;;;15.46;35.56;99829.09;5113942;28;20043;-85
2023/04/12 11:49:54;;;;;;;0.10;0.10;;;;;;;15.53;36.58;99825.97;5113733;28;20028;-85
2023/04/12 11:52:27;;;;;;;0.10;0.10;;;;;;;15.37;35.98;99835.81;5113268;28;20028;-84
2023/04/12 11:54:57;;;;;;;0.10;0.10;;;;;;;15.39;36.08;99831.25;5112379;28;20047;-85
2023/04/12 11:57:24;;;;;;;0.10;0.10;;;;;;;15.44;37.28;99838.97;5111913;28;20099;-85
2023/04/12 11:59:51;;;;;;;0.10;0.10;;;;;;;15.41;37.04;99832.00;5113230;28;20036;-85
2023/04/12 12:02:17;;;;;;;0.10;0.10;;;;;;;15.55;36.25;99843.72;5113338;28;20039;-85
2023/04/12 12:04:46;;;;;;;0.10;0.10;;;;;;;15.62;36.30;99853.13;5113817;28;20111;-85
2023/04/12 12:07:15;;;;;;;0.15;0.15;;;;;;;15.55;33.79;99849.06;5114814;28;20028;-83